首页
METAR-TAF:

METAR-TAF

机场 :

朗維尤, 得克萨斯州, 美国

纬度: 32-23-26N, 经度: 094-42-50W, 海拔: 111米

当前天气观测

该预报发布于54分钟前的22:53 UTC
风速5节,风向西
温度 24°C
湿度 41%
气压 1009 hPa
能見度: 16.1公里
天空无云

METAR: KGGG 092253Z 28005KT 10SM CLR 24/10 A2981 RMK AO2 SLP089 T02390100

时间: 17:47 (23:47 UTC)

预报

该预报发布于11分钟前的23:36 UTC
预报有效从10日的 00点(UTC)到 10日的 24点(UTC)
风速9节,风向西北
能見度: 10公里
少量云层高于4000英尺
多云层高于10000英尺
从 10日的 0800点(UTC)
风速12节,风向
能見度: 9.7公里
阴天层高于4000英尺
小阵雨
从 10日的 1200点(UTC)
风速11节,风向
能見度: 9.7公里
阴天层高于1700英尺
阵雨
从 10日的 1800点(UTC)
风速10节,风向北转东北
能見度: 6.4公里
阴天层高于700英尺
小阵雨
从 10日的 2300点(UTC)
风速9节,风向北转东北
能見度: 9.7公里
多云层高于1500英尺
小阵雨

TAF: KGGG 092336Z 1000/1024 32009KT P6SM FEW040 BKN100 FM100800 36012KT 6SM -SHRA OVC040 FM101200 01011KT 6SM SHRA OVC017 FM101800 03010KT 4SM -SHRA OVC007 FM102300 03009KT 6SM -SHRA BKN015

超过4000个机场的气象观测和天气预报(METAR&TAF报告)。

可查询的气象台以黄色和红色小点在地图上表示。

将鼠标移到小点上方,可查看气象台名称。

然后点击查看天气观测和预报。

如需切换地图:点击带黑十字的绿色按钮放大地图;点击带横线的绿色按钮缩小地图;或者点击绿色箭头查看邻近地区的地图。


METAR-TAF: